sensor_id;sensor_type;location;lat;lon;timestamp;temperature;humidity
11536;DHT22;5824;49.336;8.652;2022-07-29T00:00:01;24.00;1.00
11536;DHT22;5824;49.336;8.652;2022-07-29T00:02:27;23.90;1.00
11536;DHT22;5824;49.336;8.652;2022-07-29T00:04:53;23.90;1.00
11536;DHT22;5824;49.336;8.652;2022-07-29T00:07:19;23.80;1.00
11536;DHT22;5824;49.336;8.652;2022-07-29T00:09:45;23.80;1.00
11536;DHT22;5824;49.336;8.652;2022-07-29T00:12:10;23.70;1.00
11536;DHT22;5824;49.336;8.652;2022-07-29T00:14:36;23.70;1.00
11536;DHT22;5824;49.336;8.652;2022-07-29T00:17:02;23.60;1.00
11536;DHT22;5824;49.336;8.652;2022-07-29T00:19:27;23.60;1.00
11536;DHT22;5824;49.336;8.652;2022-07-29T00:21:53;23.50;1.00
11536;DHT22;5824;49.336;8.652;2022-07-29T00:24:18;23.50;1.00
11536;DHT22;5824;49.336;8.652;2022-07-29T00:26:44;23.40;1.00
11536;DHT22;5824;49.336;8.652;2022-07-29T00:29:09;23.30;1.00
11536;DHT22;5824;49.336;8.652;2022-07-29T00:31:35;23.30;1.00
11536;DHT22;5824;49.336;8.652;2022-07-29T00:34:01;23.30;1.00
11536;DHT22;5824;49.336;8.652;2022-07-29T00:36:27;23.30;1.00
11536;DHT22;5824;49.336;8.652;2022-07-29T00:38:53;23.30;1.00
11536;DHT22;5824;49.336;8.652;2022-07-29T00:41:18;23.20;1.00
11536;DHT22;5824;49.336;8.652;2022-07-29T00:43:44;23.20;1.00
11536;DHT22;5824;49.336;8.652;2022-07-29T00:46:10;23.30;1.00
11536;DHT22;5824;49.336;8.652;2022-07-29T00:48:36;23.20;1.00
11536;DHT22;5824;49.336;8.652;2022-07-29T00:51:03;23.20;1.00
11536;DHT22;5824;49.336;8.652;2022-07-29T00:53:30;23.20;1.00
11536;DHT22;5824;49.336;8.652;2022-07-29T00:55:56;23.20;1.00
11536;DHT22;5824;49.336;8.652;2022-07-29T00:58:23;23.20;1.00
11536;DHT22;5824;49.336;8.652;2022-07-29T01:00:49;23.20;1.00
11536;DHT22;5824;49.336;8.652;2022-07-29T01:03:14;23.20;1.00
11536;DHT22;5824;49.336;8.652;2022-07-29T01:05:41;23.70;1.00
11536;DHT22;5824;49.336;8.652;2022-07-29T01:08:08;23.20;1.00
11536;DHT22;5824;49.336;8.652;2022-07-29T01:10:37;23.20;1.00
11536;DHT22;5824;49.336;8.652;2022-07-29T01:13:03;23.20;1.00
11536;DHT22;5824;49.336;8.652;2022-07-29T01:15:29;23.20;1.00
11536;DHT22;5824;49.336;8.652;2022-07-29T01:18:04;23.20;1.00
11536;DHT22;5824;49.336;8.652;2022-07-29T01:29:02;23.10;1.00
11536;DHT22;5824;49.336;8.652;2022-07-29T01:34:03;23.10;1.00
11536;DHT22;5824;49.336;8.652;2022-07-29T01:36:43;23.00;1.00
11536;DHT22;5824;49.336;8.652;2022-07-29T01:39:12;23.00;1.00
11536;DHT22;5824;49.336;8.652;2022-07-29T01:41:46;22.90;1.00
11536;DHT22;5824;49.336;8.652;2022-07-29T01:44:22;22.90;1.00
11536;DHT22;5824;49.336;8.652;2022-07-29T01:46:54;22.90;1.00
11536;DHT22;5824;49.336;8.652;2022-07-29T01:49:25;22.90;1.00
11536;DHT22;5824;49.336;8.652;2022-07-29T01:52:03;22.80;1.00
11536;DHT22;5824;49.336;8.652;2022-07-29T01:54:39;22.90;1.00
11536;DHT22;5824;49.336;8.652;2022-07-29T01:57:14;22.90;1.00
11536;DHT22;5824;49.336;8.652;2022-07-29T01:59:41;22.80;1.00
11536;DHT22;5824;49.336;8.652;2022-07-29T02:02:09;22.70;1.00
11536;DHT22;5824;49.336;8.652;2022-07-29T02:04:37;22.80;1.00
11536;DHT22;5824;49.336;8.652;2022-07-29T02:07:06;22.70;1.00
11536;DHT22;5824;49.336;8.652;2022-07-29T02:09:35;22.80;1.00
11536;DHT22;5824;49.336;8.652;2022-07-29T02:12:03;22.70;1.00
11536;DHT22;5824;49.336;8.652;2022-07-29T02:14:36;22.70;1.00
11536;DHT22;5824;49.336;8.652;2022-07-29T02:17:03;22.60;1.00
11536;DHT22;5824;49.336;8.652;2022-07-29T02:19:31;22.60;1.00
11536;DHT22;5824;49.336;8.652;2022-07-29T02:21:58;22.60;1.00
11536;DHT22;5824;49.336;8.652;2022-07-29T02:24:25;22.60;1.00
11536;DHT22;5824;49.336;8.652;2022-07-29T02:26:53;22.50;1.00
11536;DHT22;5824;49.336;8.652;2022-07-29T02:29:23;22.40;1.00
11536;DHT22;5824;49.336;8.652;2022-07-29T02:31:49;22.40;1.00
11536;DHT22;5824;49.336;8.652;2022-07-29T02:34:15;22.40;1.00
11536;DHT22;5824;49.336;8.652;2022-07-29T02:36:43;22.30;1.00
11536;DHT22;5824;49.336;8.652;2022-07-29T02:39:11;22.30;1.00
11536;DHT22;5824;49.336;8.652;2022-07-29T02:41:46;22.50;1.00
11536;DHT22;5824;49.336;8.652;2022-07-29T02:44:17;22.30;1.00
11536;DHT22;5824;49.336;8.652;2022-07-29T02:51:51;22.20;1.00
11536;DHT22;5824;49.336;8.652;2022-07-29T02:54:39;22.20;1.00
11536;DHT22;5824;49.336;8.652;2022-07-29T02:57:11;22.20;1.00
11536;DHT22;5824;49.336;8.652;2022-07-29T02:59:41;22.20;1.00
11536;DHT22;5824;49.336;8.652;2022-07-29T03:02:08;22.10;1.00
11536;DHT22;5824;49.336;8.652;2022-07-29T03:04:35;22.10;1.00
11536;DHT22;5824;49.336;8.652;2022-07-29T03:07:03;22.10;1.00
11536;DHT22;5824;49.336;8.652;2022-07-29T03:09:30;22.30;1.00
11536;DHT22;5824;49.336;8.652;2022-07-29T03:11:57;22.10;1.00
11536;DHT22;5824;49.336;8.652;2022-07-29T03:14:23;22.10;1.00
11536;DHT22;5824;49.336;8.652;2022-07-29T03:16:50;22.10;1.00
11536;DHT22;5824;49.336;8.652;2022-07-29T03:19:17;22.10;1.00
11536;DHT22;5824;49.336;8.652;2022-07-29T03:21:42;22.30;1.00
11536;DHT22;5824;49.336;8.652;2022-07-29T03:24:08;22.10;1.00
11536;DHT22;5824;49.336;8.652;2022-07-29T03:26:33;22.20;1.00
11536;DHT22;5824;49.336;8.652;2022-07-29T03:28:59;22.20;1.00
11536;DHT22;5824;49.336;8.652;2022-07-29T03:31:25;22.20;1.00
11536;DHT22;5824;49.336;8.652;2022-07-29T03:33:51;22.20;1.00
11536;DHT22;5824;49.336;8.652;2022-07-29T03:36:16;22.30;1.00
11536;DHT22;5824;49.336;8.652;2022-07-29T03:38:42;22.30;1.00
11536;DHT22;5824;49.336;8.652;2022-07-29T03:41:10;22.30;1.00
11536;DHT22;5824;49.336;8.652;2022-07-29T03:43:38;22.30;1.00
11536;DHT22;5824;49.336;8.652;2022-07-29T03:46:07;22.30;1.00
11536;DHT22;5824;49.336;8.652;2022-07-29T03:48:36;22.30;1.00
11536;DHT22;5824;49.336;8.652;2022-07-29T03:51:04;22.50;1.00
11536;DHT22;5824;49.336;8.652;2022-07-29T03:53:29;22.30;1.00
11536;DHT22;5824;49.336;8.652;2022-07-29T03:55:59;22.30;1.00
11536;DHT22;5824;49.336;8.652;2022-07-29T03:58:27;22.40;1.00
11536;DHT22;5824;49.336;8.652;2022-07-29T04:00:55;22.30;1.00
11536;DHT22;5824;49.336;8.652;2022-07-29T04:03:22;22.30;1.00
11536;DHT22;5824;49.336;8.652;2022-07-29T04:06:02;22.30;1.00
11536;DHT22;5824;49.336;8.652;2022-07-29T04:08:28;22.30;1.00
11536;DHT22;5824;49.336;8.652;2022-07-29T04:10:54;22.30;1.00
11536;DHT22;5824;49.336;8.652;2022-07-29T04:13:20;22.20;1.00
11536;DHT22;5824;49.336;8.652;2022-07-29T04:15:46;22.20;1.00
11536;DHT22;5824;49.336;8.652;2022-07-29T04:18:11;22.10;1.00
11536;DHT22;5824;49.336;8.652;2022-07-29T04:20:37;22.10;1.00
11536;DHT22;5824;49.336;8.652;2022-07-29T04:23:02;22.10;1.00
11536;DHT22;5824;49.336;8.652;2022-07-29T04:25:28;22.10;1.00
11536;DHT22;5824;49.336;8.652;2022-07-29T04:27:53;22.10;1.00
11536;DHT22;5824;49.336;8.652;2022-07-29T04:30:29;22.00;1.00
11536;DHT22;5824;49.336;8.652;2022-07-29T04:32:55;22.00;1.00
11536;DHT22;5824;49.336;8.652;2022-07-29T04:35:20;22.00;1.00
11536;DHT22;5824;49.336;8.652;2022-07-29T04:37:46;22.00;1.00
11536;DHT22;5824;49.336;8.652;2022-07-29T04:40:12;22.00;1.00
11536;DHT22;5824;49.336;8.652;2022-07-29T04:42:38;22.10;1.00
11536;DHT22;5824;49.336;8.652;2022-07-29T04:45:04;22.10;1.00
11536;DHT22;5824;49.336;8.652;2022-07-29T04:47:30;22.10;1.00
11536;DHT22;5824;49.336;8.652;2022-07-29T04:49:55;22.10;1.00
11536;DHT22;5824;49.336;8.652;2022-07-29T04:52:22;23.50;1.00
11536;DHT22;5824;49.336;8.652;2022-07-29T04:54:47;22.10;1.00
11536;DHT22;5824;49.336;8.652;2022-07-29T04:57:13;22.10;1.00
11536;DHT22;5824;49.336;8.652;2022-07-29T04:59:39;24.00;1.00
11536;DHT22;5824;49.336;8.652;2022-07-29T05:02:04;22.20;1.00
11536;DHT22;5824;49.336;8.652;2022-07-29T05:04:30;22.20;1.00
11536;DHT22;5824;49.336;8.652;2022-07-29T05:06:55;22.30;1.00
11536;DHT22;5824;49.336;8.652;2022-07-29T05:09:21;22.30;1.00
11536;DHT22;5824;49.336;8.652;2022-07-29T05:11:46;22.70;1.00
11536;DHT22;5824;49.336;8.652;2022-07-29T05:14:12;22.40;1.00
11536;DHT22;5824;49.336;8.652;2022-07-29T05:16:37;22.50;1.00
11536;DHT22;5824;49.336;8.652;2022-07-29T05:19:05;22.60;1.00
11536;DHT22;5824;49.336;8.652;2022-07-29T05:21:31;22.60;1.00
11536;DHT22;5824;49.336;8.652;2022-07-29T05:23:56;22.70;1.00
11536;DHT22;5824;49.336;8.652;2022-07-29T05:26:22;23.20;1.00
11536;DHT22;5824;49.336;8.652;2022-07-29T05:28:48;22.90;1.00
11536;DHT22;5824;49.336;8.652;2022-07-29T05:31:14;22.90;1.00
11536;DHT22;5824;49.336;8.652;2022-07-29T05:33:40;23.00;1.00
11536;DHT22;5824;49.336;8.652;2022-07-29T05:36:06;23.10;1.00
11536;DHT22;5824;49.336;8.652;2022-07-29T05:38:33;23.10;1.00
11536;DHT22;5824;49.336;8.652;2022-07-29T05:40:59;23.10;1.00
11536;DHT22;5824;49.336;8.652;2022-07-29T05:43:25;23.10;1.00
11536;DHT22;5824;49.336;8.652;2022-07-29T05:45:51;23.20;1.00
11536;DHT22;5824;49.336;8.652;2022-07-29T05:48:16;23.20;1.00
11536;DHT22;5824;49.336;8.652;2022-07-29T05:50:42;23.20;1.00
11536;DHT22;5824;49.336;8.652;2022-07-29T05:53:07;23.30;1.00
11536;DHT22;5824;49.336;8.652;2022-07-29T05:55:33;23.40;1.00
11536;DHT22;5824;49.336;8.652;2022-07-29T05:57:58;23.40;1.00
11536;DHT22;5824;49.336;8.652;2022-07-29T06:00:24;23.60;1.00
11536;DHT22;5824;49.336;8.652;2022-07-29T06:02:49;23.60;1.00
11536;DHT22;5824;49.336;8.652;2022-07-29T06:05:15;24.00;1.00
11536;DHT22;5824;49.336;8.652;2022-07-29T06:07:40;23.60;1.00
11536;DHT22;5824;49.336;8.652;2022-07-29T06:10:06;23.70;1.00
11536;DHT22;5824;49.336;8.652;2022-07-29T06:12:32;23.80;1.00
11536;DHT22;5824;49.336;8.652;2022-07-29T06:14:57;24.00;1.00
11536;DHT22;5824;49.336;8.652;2022-07-29T06:17:23;23.80;1.00
11536;DHT22;5824;49.336;8.652;2022-07-29T06:19:48;23.90;1.00
11536;DHT22;5824;49.336;8.652;2022-07-29T06:22:17;24.00;1.00
11536;DHT22;5824;49.336;8.652;2022-07-29T06:24:43;24.20;1.00
11536;DHT22;5824;49.336;8.652;2022-07-29T06:27:10;24.30;1.00
11536;DHT22;5824;49.336;8.652;2022-07-29T06:29:36;24.40;1.00
11536;DHT22;5824;49.336;8.652;2022-07-29T06:32:02;24.50;1.00
11536;DHT22;5824;49.336;8.652;2022-07-29T06:34:28;24.60;1.00
11536;DHT22;5824;49.336;8.652;2022-07-29T06:36:53;24.70;1.00
11536;DHT22;5824;49.336;8.652;2022-07-29T06:39:19;24.80;1.00
11536;DHT22;5824;49.336;8.652;2022-07-29T06:41:48;24.90;1.00
11536;DHT22;5824;49.336;8.652;2022-07-29T06:44:14;24.90;1.00
11536;DHT22;5824;49.336;8.652;2022-07-29T06:46:40;24.50;1.00
11536;DHT22;5824;49.336;8.652;2022-07-29T06:49:07;24.50;1.00
11536;DHT22;5824;49.336;8.652;2022-07-29T06:51:33;24.60;1.00
11536;DHT22;5824;49.336;8.652;2022-07-29T06:53:58;24.80;1.00
11536;DHT22;5824;49.336;8.652;2022-07-29T06:56:24;25.10;1.00
11536;DHT22;5824;49.336;8.652;2022-07-29T06:58:50;25.30;1.00
11536;DHT22;5824;49.336;8.652;2022-07-29T07:01:15;25.30;1.00
11536;DHT22;5824;49.336;8.652;2022-07-29T07:03:41;25.20;1.00
11536;DHT22;5824;49.336;8.652;2022-07-29T07:06:07;25.20;1.00
11536;DHT22;5824;49.336;8.652;2022-07-29T07:08:33;25.30;1.00
11536;DHT22;5824;49.336;8.652;2022-07-29T07:10:59;25.50;1.00
11536;DHT22;5824;49.336;8.652;2022-07-29T07:13:25;25.50;1.00
11536;DHT22;5824;49.336;8.652;2022-07-29T07:15:51;25.80;1.00
11536;DHT22;5824;49.336;8.652;2022-07-29T07:18:18;25.90;1.00
11536;DHT22;5824;49.336;8.652;2022-07-29T07:20:44;25.90;1.00
11536;DHT22;5824;49.336;8.652;2022-07-29T07:23:10;25.70;1.00
11536;DHT22;5824;49.336;8.652;2022-07-29T07:25:36;25.70;1.00
11536;DHT22;5824;49.336;8.652;2022-07-29T07:28:02;25.70;1.00
11536;DHT22;5824;49.336;8.652;2022-07-29T07:30:28;25.60;1.00
11536;DHT22;5824;49.336;8.652;2022-07-29T07:32:54;25.50;1.00
11536;DHT22;5824;49.336;8.652;2022-07-29T07:35:20;25.30;1.00
11536;DHT22;5824;49.336;8.652;2022-07-29T07:37:46;25.50;1.00
11536;DHT22;5824;49.336;8.652;2022-07-29T07:40:12;25.70;1.00
11536;DHT22;5824;49.336;8.652;2022-07-29T07:42:39;26.20;1.00
11536;DHT22;5824;49.336;8.652;2022-07-29T07:45:05;26.70;1.00
11536;DHT22;5824;49.336;8.652;2022-07-29T07:47:31;27.10;1.00
11536;DHT22;5824;49.336;8.652;2022-07-29T07:49:57;27.60;1.00
11536;DHT22;5824;49.336;8.652;2022-07-29T07:52:23;28.30;1.00
11536;DHT22;5824;49.336;8.652;2022-07-29T07:54:48;28.50;1.00
11536;DHT22;5824;49.336;8.652;2022-07-29T07:57:14;28.50;1.00
11536;DHT22;5824;49.336;8.652;2022-07-29T07:59:40;28.40;1.00
11536;DHT22;5824;49.336;8.652;2022-07-29T08:02:06;28.10;1.00
11536;DHT22;5824;49.336;8.652;2022-07-29T08:04:32;27.90;1.00
11536;DHT22;5824;49.336;8.652;2022-07-29T08:06:58;27.80;1.00
11536;DHT22;5824;49.336;8.652;2022-07-29T08:09:25;28.10;1.00
11536;DHT22;5824;49.336;8.652;2022-07-29T08:11:51;28.80;1.00
11536;DHT22;5824;49.336;8.652;2022-07-29T08:14:16;29.20;1.00
11536;DHT22;5824;49.336;8.652;2022-07-29T08:16:42;29.20;1.00
11536;DHT22;5824;49.336;8.652;2022-07-29T08:19:08;29.50;1.00
11536;DHT22;5824;49.336;8.652;2022-07-29T08:21:34;29.20;1.00
11536;DHT22;5824;49.336;8.652;2022-07-29T08:24:00;29.40;1.00
11536;DHT22;5824;49.336;8.652;2022-07-29T08:26:45;29.50;1.00
11536;DHT22;5824;49.336;8.652;2022-07-29T08:29:10;29.80;1.00
11536;DHT22;5824;49.336;8.652;2022-07-29T08:31:37;30.00;1.00
11536;DHT22;5824;49.336;8.652;2022-07-29T08:34:04;30.20;1.00
11536;DHT22;5824;49.336;8.652;2022-07-29T08:36:30;29.80;1.00
11536;DHT22;5824;49.336;8.652;2022-07-29T08:38:56;29.50;1.00
11536;DHT22;5824;49.336;8.652;2022-07-29T08:41:22;29.20;1.00
11536;DHT22;5824;49.336;8.652;2022-07-29T08:43:49;29.20;1.00
11536;DHT22;5824;49.336;8.652;2022-07-29T08:46:15;29.40;1.00
11536;DHT22;5824;49.336;8.652;2022-07-29T08:48:42;29.70;1.00
11536;DHT22;5824;49.336;8.652;2022-07-29T08:51:08;30.00;1.00
11536;DHT22;5824;49.336;8.652;2022-07-29T08:53:41;30.50;1.00
11536;DHT22;5824;49.336;8.652;2022-07-29T08:56:07;31.00;1.00
11536;DHT22;5824;49.336;8.652;2022-07-29T08:58:36;31.00;1.00
11536;DHT22;5824;49.336;8.652;2022-07-29T09:01:02;31.60;1.00
11536;DHT22;5824;49.336;8.652;2022-07-29T09:03:31;32.10;1.00
11536;DHT22;5824;49.336;8.652;2022-07-29T09:05:59;33.60;1.00
11536;DHT22;5824;49.336;8.652;2022-07-29T09:08:25;34.50;1.00
11536;DHT22;5824;49.336;8.652;2022-07-29T09:10:51;35.60;1.00
11536;DHT22;5824;49.336;8.652;2022-07-29T09:13:17;35.20;1.00
11536;DHT22;5824;49.336;8.652;2022-07-29T09:15:43;34.40;1.00
11536;DHT22;5824;49.336;8.652;2022-07-29T09:18:09;34.10;1.00
11536;DHT22;5824;49.336;8.652;2022-07-29T09:20:35;34.20;1.00
11536;DHT22;5824;49.336;8.652;2022-07-29T09:23:19;34.20;1.00
11536;DHT22;5824;49.336;8.652;2022-07-29T09:25:44;33.60;1.00
11536;DHT22;5824;49.336;8.652;2022-07-29T09:28:15;32.90;1.00
11536;DHT22;5824;49.336;8.652;2022-07-29T09:30:55;32.40;1.00
11536;DHT22;5824;49.336;8.652;2022-07-29T09:33:22;31.80;1.00
11536;DHT22;5824;49.336;8.652;2022-07-29T09:36:08;31.60;1.00
11536;DHT22;5824;49.336;8.652;2022-07-29T09:38:35;31.90;1.00
11536;DHT22;5824;49.336;8.652;2022-07-29T09:41:03;32.40;1.00
11536;DHT22;5824;49.336;8.652;2022-07-29T09:43:29;32.80;1.00
11536;DHT22;5824;49.336;8.652;2022-07-29T09:45:55;33.10;1.00
11536;DHT22;5824;49.336;8.652;2022-07-29T09:48:22;34.00;1.00
11536;DHT22;5824;49.336;8.652;2022-07-29T09:50:48;34.20;1.00
11536;DHT22;5824;49.336;8.652;2022-07-29T09:53:35;34.20;1.00
11536;DHT22;5824;49.336;8.652;2022-07-29T09:56:02;35.10;1.00
11536;DHT22;5824;49.336;8.652;2022-07-29T09:58:28;35.90;1.00
11536;DHT22;5824;49.336;8.652;2022-07-29T10:00:54;36.10;1.00
11536;DHT22;5824;49.336;8.652;2022-07-29T10:03:20;36.10;1.00
11536;DHT22;5824;49.336;8.652;2022-07-29T10:06:10;36.40;1.00
11536;DHT22;5824;49.336;8.652;2022-07-29T10:08:36;37.80;1.00
11536;DHT22;5824;49.336;8.652;2022-07-29T10:11:15;38.50;1.00
11536;DHT22;5824;49.336;8.652;2022-07-29T10:13:43;39.20;1.00
11536;DHT22;5824;49.336;8.652;2022-07-29T10:16:10;39.40;1.00
11536;DHT22;5824;49.336;8.652;2022-07-29T10:18:38;38.90;1.00
11536;DHT22;5824;49.336;8.652;2022-07-29T10:21:03;38.40;1.00
11536;DHT22;5824;49.336;8.652;2022-07-29T10:23:30;38.40;1.00
11536;DHT22;5824;49.336;8.652;2022-07-29T10:25:56;39.70;1.00
11536;DHT22;5824;49.336;8.652;2022-07-29T10:28:21;40.70;1.00
11536;DHT22;5824;49.336;8.652;2022-07-29T10:30:50;41.10;1.00
11536;DHT22;5824;49.336;8.652;2022-07-29T10:36:07;41.90;1.00
11536;DHT22;5824;49.336;8.652;2022-07-29T10:38:51;41.90;1.00
11536;DHT22;5824;49.336;8.652;2022-07-29T10:42:02;42.10;1.00
11536;DHT22;5824;49.336;8.652;2022-07-29T10:44:32;41.00;1.00
11536;DHT22;5824;49.336;8.652;2022-07-29T10:46:58;41.00;1.00
11536;DHT22;5824;49.336;8.652;2022-07-29T10:49:25;41.30;1.00
11536;DHT22;5824;49.336;8.652;2022-07-29T10:59:40;41.70;1.00
11536;DHT22;5824;49.336;8.652;2022-07-29T11:05:25;42.90;1.00
11536;DHT22;5824;49.336;8.652;2022-07-29T11:10:37;41.60;1.00
11536;DHT22;5824;49.336;8.652;2022-07-29T11:13:02;41.90;1.00
11536;DHT22;5824;49.336;8.652;2022-07-29T11:15:28;42.20;1.00
11536;DHT22;5824;49.336;8.652;2022-07-29T11:23:00;41.80;1.00
11536;DHT22;5824;49.336;8.652;2022-07-29T11:25:25;42.60;1.00
11536;DHT22;5824;49.336;8.652;2022-07-29T11:27:53;42.60;1.00
11536;DHT22;5824;49.336;8.652;2022-07-29T11:30:19;42.30;1.00
11536;DHT22;5824;49.336;8.652;2022-07-29T11:32:45;42.70;1.00
11536;DHT22;5824;49.336;8.652;2022-07-29T11:35:17;43.40;1.00
11536;DHT22;5824;49.336;8.652;2022-07-29T11:37:44;43.90;1.00
11536;DHT22;5824;49.336;8.652;2022-07-29T11:40:12;44.20;1.00
11536;DHT22;5824;49.336;8.652;2022-07-29T11:42:40;44.80;1.00
11536;DHT22;5824;49.336;8.652;2022-07-29T11:47:46;44.90;1.00
11536;DHT22;5824;49.336;8.652;2022-07-29T11:50:15;45.10;1.00
11536;DHT22;5824;49.336;8.652;2022-07-29T11:52:45;45.30;1.00
11536;DHT22;5824;49.336;8.652;2022-07-29T11:55:18;45.40;1.00
11536;DHT22;5824;49.336;8.652;2022-07-29T11:57:48;45.20;1.00
11536;DHT22;5824;49.336;8.652;2022-07-29T12:00:36;45.00;1.00
11536;DHT22;5824;49.336;8.652;2022-07-29T12:03:06;45.40;1.00
11536;DHT22;5824;49.336;8.652;2022-07-29T12:05:33;45.80;1.00
11536;DHT22;5824;49.336;8.652;2022-07-29T12:08:11;45.00;1.00
11536;DHT22;5824;49.336;8.652;2022-07-29T12:10:38;45.00;1.00
11536;DHT22;5824;49.336;8.652;2022-07-29T12:13:04;44.80;1.00
11536;DHT22;5824;49.336;8.652;2022-07-29T12:15:30;44.40;1.00
11536;DHT22;5824;49.336;8.652;2022-07-29T12:17:55;44.70;1.00
11536;DHT22;5824;49.336;8.652;2022-07-29T12:20:28;45.20;1.00
11536;DHT22;5824;49.336;8.652;2022-07-29T12:22:55;45.60;1.00
11536;DHT22;5824;49.336;8.652;2022-07-29T12:25:22;45.80;1.00
11536;DHT22;5824;49.336;8.652;2022-07-29T12:27:58;45.60;1.00
11536;DHT22;5824;49.336;8.652;2022-07-29T12:30:34;45.30;1.00
11536;DHT22;5824;49.336;8.652;2022-07-29T12:33:00;43.40;1.00
11536;DHT22;5824;49.336;8.652;2022-07-29T12:35:26;41.20;1.00
11536;DHT22;5824;49.336;8.652;2022-07-29T12:37:51;39.60;1.00
11536;DHT22;5824;49.336;8.652;2022-07-29T12:40:18;38.30;1.00
11536;DHT22;5824;49.336;8.652;2022-07-29T12:43:10;37.60;1.00
11536;DHT22;5824;49.336;8.652;2022-07-29T12:45:45;37.30;1.00
11536;DHT22;5824;49.336;8.652;2022-07-29T12:48:11;36.80;1.00
11536;DHT22;5824;49.336;8.652;2022-07-29T12:50:55;37.40;1.00
11536;DHT22;5824;49.336;8.652;2022-07-29T12:53:21;37.90;1.00
11536;DHT22;5824;49.336;8.652;2022-07-29T12:55:49;37.40;1.00
11536;DHT22;5824;49.336;8.652;2022-07-29T12:58:46;36.50;1.00
11536;DHT22;5824;49.336;8.652;2022-07-29T13:01:16;35.80;1.00
11536;DHT22;5824;49.336;8.652;2022-07-29T13:03:54;35.30;1.00
11536;DHT22;5824;49.336;8.652;2022-07-29T13:06:42;35.50;1.00
11536;DHT22;5824;49.336;8.652;2022-07-29T13:09:16;35.90;1.00
11536;DHT22;5824;49.336;8.652;2022-07-29T13:11:44;36.90;1.00
11536;DHT22;5824;49.336;8.652;2022-07-29T13:14:13;37.00;1.00
11536;DHT22;5824;49.336;8.652;2022-07-29T13:17:07;36.90;1.00
11536;DHT22;5824;49.336;8.652;2022-07-29T13:19:38;36.60;1.00
11536;DHT22;5824;49.336;8.652;2022-07-29T13:22:06;37.00;1.00
11536;DHT22;5824;49.336;8.652;2022-07-29T13:24:32;37.20;1.00
11536;DHT22;5824;49.336;8.652;2022-07-29T13:26:58;37.80;1.00
11536;DHT22;5824;49.336;8.652;2022-07-29T13:29:24;37.60;1.00
11536;DHT22;5824;49.336;8.652;2022-07-29T13:31:51;36.80;1.00
11536;DHT22;5824;49.336;8.652;2022-07-29T13:34:17;36.30;1.00
11536;DHT22;5824;49.336;8.652;2022-07-29T13:36:44;35.50;1.00
11536;DHT22;5824;49.336;8.652;2022-07-29T13:39:10;34.50;1.00
11536;DHT22;5824;49.336;8.652;2022-07-29T13:41:36;33.80;1.00
11536;DHT22;5824;49.336;8.652;2022-07-29T13:44:02;33.20;1.00
11536;DHT22;5824;49.336;8.652;2022-07-29T13:46:27;32.80;1.00
11536;DHT22;5824;49.336;8.652;2022-07-29T13:48:53;32.90;1.00
11536;DHT22;5824;49.336;8.652;2022-07-29T13:51:19;33.10;1.00
11536;DHT22;5824;49.336;8.652;2022-07-29T13:53:44;33.60;1.00
11536;DHT22;5824;49.336;8.652;2022-07-29T13:56:10;34.20;1.00
11536;DHT22;5824;49.336;8.652;2022-07-29T13:58:35;35.60;1.00
11536;DHT22;5824;49.336;8.652;2022-07-29T14:01:01;34.80;1.00
11536;DHT22;5824;49.336;8.652;2022-07-29T14:03:26;34.70;1.00
11536;DHT22;5824;49.336;8.652;2022-07-29T14:05:53;34.30;1.00
11536;DHT22;5824;49.336;8.652;2022-07-29T14:08:18;34.00;1.00
11536;DHT22;5824;49.336;8.652;2022-07-29T14:10:44;33.60;1.00
11536;DHT22;5824;49.336;8.652;2022-07-29T14:13:09;33.60;1.00
11536;DHT22;5824;49.336;8.652;2022-07-29T14:15:35;33.30;1.00
11536;DHT22;5824;49.336;8.652;2022-07-29T14:18:01;33.40;1.00
11536;DHT22;5824;49.336;8.652;2022-07-29T14:20:26;32.70;1.00
11536;DHT22;5824;49.336;8.652;2022-07-29T14:22:55;32.70;1.00
11536;DHT22;5824;49.336;8.652;2022-07-29T14:25:20;32.70;1.00
11536;DHT22;5824;49.336;8.652;2022-07-29T14:27:46;32.70;1.00
11536;DHT22;5824;49.336;8.652;2022-07-29T14:30:11;32.80;1.00
11536;DHT22;5824;49.336;8.652;2022-07-29T14:32:37;32.70;1.00
11536;DHT22;5824;49.336;8.652;2022-07-29T14:35:03;32.40;1.00
11536;DHT22;5824;49.336;8.652;2022-07-29T14:37:29;32.20;1.00
11536;DHT22;5824;49.336;8.652;2022-07-29T14:39:55;32.10;1.00
11536;DHT22;5824;49.336;8.652;2022-07-29T14:42:24;32.10;1.00
11536;DHT22;5824;49.336;8.652;2022-07-29T14:44:50;32.20;1.00
11536;DHT22;5824;49.336;8.652;2022-07-29T14:47:15;32.20;1.00
11536;DHT22;5824;49.336;8.652;2022-07-29T14:49:41;32.10;1.00
11536;DHT22;5824;49.336;8.652;2022-07-29T14:52:06;31.90;1.00
11536;DHT22;5824;49.336;8.652;2022-07-29T14:54:32;31.70;1.00
11536;DHT22;5824;49.336;8.652;2022-07-29T14:56:57;31.90;1.00
11536;DHT22;5824;49.336;8.652;2022-07-29T14:59:23;32.20;1.00
11536;DHT22;5824;49.336;8.652;2022-07-29T15:01:48;32.50;1.00
11536;DHT22;5824;49.336;8.652;2022-07-29T15:04:15;32.80;1.00
11536;DHT22;5824;49.336;8.652;2022-07-29T15:06:40;33.10;1.00
11536;DHT22;5824;49.336;8.652;2022-07-29T15:09:06;33.10;1.00
11536;DHT22;5824;49.336;8.652;2022-07-29T15:11:31;32.90;1.00
11536;DHT22;5824;49.336;8.652;2022-07-29T15:13:57;32.90;1.00
11536;DHT22;5824;49.336;8.652;2022-07-29T15:16:22;33.20;1.00
11536;DHT22;5824;49.336;8.652;2022-07-29T15:18:49;33.10;1.00
11536;DHT22;5824;49.336;8.652;2022-07-29T15:21:15;33.10;1.00
11536;DHT22;5824;49.336;8.652;2022-07-29T15:23:40;32.70;1.00
11536;DHT22;5824;49.336;8.652;2022-07-29T15:26:06;32.50;1.00
11536;DHT22;5824;49.336;8.652;2022-07-29T15:28:31;32.80;1.00
11536;DHT22;5824;49.336;8.652;2022-07-29T15:30:57;32.80;1.00
11536;DHT22;5824;49.336;8.652;2022-07-29T15:33:22;32.60;1.00
11536;DHT22;5824;49.336;8.652;2022-07-29T15:35:48;32.40;1.00
11536;DHT22;5824;49.336;8.652;2022-07-29T15:38:14;31.80;1.00
11536;DHT22;5824;49.336;8.652;2022-07-29T15:40:40;31.60;1.00
11536;DHT22;5824;49.336;8.652;2022-07-29T15:43:08;31.50;1.00
11536;DHT22;5824;49.336;8.652;2022-07-29T15:45:38;31.40;1.00
11536;DHT22;5824;49.336;8.652;2022-07-29T15:48:05;31.30;1.00
11536;DHT22;5824;49.336;8.652;2022-07-29T15:50:32;31.60;1.00
11536;DHT22;5824;49.336;8.652;2022-07-29T15:52:57;32.50;1.00
11536;DHT22;5824;49.336;8.652;2022-07-29T15:55:23;32.60;1.00
11536;DHT22;5824;49.336;8.652;2022-07-29T15:57:48;33.10;1.00
11536;DHT22;5824;49.336;8.652;2022-07-29T16:00:14;33.50;1.00
11536;DHT22;5824;49.336;8.652;2022-07-29T16:02:42;33.20;1.00
11536;DHT22;5824;49.336;8.652;2022-07-29T16:05:08;32.80;1.00
11536;DHT22;5824;49.336;8.652;2022-07-29T16:07:34;32.30;1.00
11536;DHT22;5824;49.336;8.652;2022-07-29T16:09:59;32.80;1.00
11536;DHT22;5824;49.336;8.652;2022-07-29T16:12:25;31.90;1.00
11536;DHT22;5824;49.336;8.652;2022-07-29T16:14:51;31.70;1.00
11536;DHT22;5824;49.336;8.652;2022-07-29T16:17:17;31.40;1.00
11536;DHT22;5824;49.336;8.652;2022-07-29T16:19:43;31.30;1.00
11536;DHT22;5824;49.336;8.652;2022-07-29T16:22:09;31.10;1.00
11536;DHT22;5824;49.336;8.652;2022-07-29T16:24:35;30.80;1.00
11536;DHT22;5824;49.336;8.652;2022-07-29T16:27:01;30.60;1.00
11536;DHT22;5824;49.336;8.652;2022-07-29T16:29:27;30.50;1.00
11536;DHT22;5824;49.336;8.652;2022-07-29T16:31:53;30.50;1.00
11536;DHT22;5824;49.336;8.652;2022-07-29T16:34:18;30.80;1.00
11536;DHT22;5824;49.336;8.652;2022-07-29T16:36:44;30.50;1.00
11536;DHT22;5824;49.336;8.652;2022-07-29T16:39:09;30.80;1.00
11536;DHT22;5824;49.336;8.652;2022-07-29T16:41:37;30.80;1.00
11536;DHT22;5824;49.336;8.652;2022-07-29T16:44:02;31.00;1.00